createdAt,value
2023-02-27T00:01:39.342Z,22.00
2023-02-27T00:04:41.143Z,23.70
2023-02-27T00:07:43.337Z,22.10
2023-02-27T00:13:46.584Z,19.00
2023-02-27T00:16:48.309Z,18.20
2023-02-27T00:22:51.646Z,18.40
2023-02-27T00:28:55.181Z,19.30
2023-02-27T00:34:58.813Z,17.90
2023-02-27T00:38:00.572Z,17.40
2023-02-27T00:41:02.268Z,15.00
2023-02-27T00:44:04.031Z,13.50
2023-02-27T00:47:05.822Z,12.30
2023-02-27T00:53:09.070Z,10.50
2023-02-27T00:56:10.732Z,11.20
2023-02-27T00:59:12.446Z,10.80
2023-02-27T01:02:14.117Z,10.00
2023-02-27T01:05:16.045Z,10.60
2023-02-27T01:08:18.002Z,8.80
2023-02-27T01:11:19.657Z,8.80
2023-02-27T01:14:21.370Z,8.40
2023-02-27T01:17:22.990Z,8.70
2023-02-27T01:20:24.646Z,8.40
2023-02-27T01:23:31.561Z,8.60
2023-02-27T01:29:34.732Z,9.00
2023-02-27T01:32:36.596Z,8.60
2023-02-27T01:35:38.427Z,8.60
2023-02-27T01:41:41.735Z,9.80
2023-02-27T01:45:10.550Z,9.10
2023-02-27T01:48:20.997Z,9.30
2023-02-27T01:51:22.654Z,9.30
2023-02-27T01:54:26.314Z,8.80
2023-02-27T01:57:28.113Z,9.10
2023-02-27T02:03:37.793Z,8.40
2023-02-27T02:06:41.278Z,9.40
2023-02-27T02:09:49.283Z,8.80
2023-02-27T02:12:51.024Z,9.20
2023-02-27T02:19:13.923Z,7.90
2023-02-27T02:22:27.506Z,8.80
2023-02-27T02:25:58.498Z,7.30
2023-02-27T02:29:25.068Z,7.90
2023-02-27T02:32:43.846Z,7.80
2023-02-27T02:36:11.976Z,7.70
2023-02-27T02:39:28.935Z,7.10
2023-02-27T02:42:37.884Z,7.20
2023-02-27T02:45:51.391Z,6.10
2023-02-27T02:48:59.820Z,6.40
2023-02-27T02:52:06.954Z,6.90
2023-02-27T02:55:13.969Z,6.10
2023-02-27T02:58:15.580Z,6.70
2023-02-27T03:01:21.562Z,6.50
2023-02-27T03:04:29.279Z,6.70
2023-02-27T03:07:49.389Z,6.30
2023-02-27T03:10:55.545Z,6.70
2023-02-27T03:14:03.774Z,6.40
2023-02-27T03:17:15.366Z,6.00
2023-02-27T03:20:24.839Z,6.10
2023-02-27T03:23:34.028Z,6.00
2023-02-27T03:26:40.026Z,6.20
2023-02-27T03:29:57.350Z,6.40
2023-02-27T03:33:07.797Z,6.30
2023-02-27T03:36:15.264Z,5.40
2023-02-27T03:39:35.533Z,5.30
2023-02-27T03:43:15.620Z,6.60
2023-02-27T03:46:19.026Z,6.30
2023-02-27T03:49:20.962Z,5.80
2023-02-27T03:52:24.496Z,5.20
2023-02-27T03:55:33.331Z,6.20
2023-02-27T03:58:35.682Z,5.00
2023-02-27T04:01:37.588Z,5.30
2023-02-27T04:04:39.287Z,5.50
2023-02-27T04:10:52.978Z,5.70
2023-02-27T04:14:23.630Z,5.70
2023-02-27T04:17:27.944Z,5.30
2023-02-27T04:20:29.660Z,6.00
2023-02-27T04:27:07.049Z,5.80
2023-02-27T04:30:33.895Z,6.10
2023-02-27T04:33:47.506Z,6.20
2023-02-27T04:36:58.304Z,7.70
2023-02-27T04:40:02.980Z,9.00
2023-02-27T04:43:06.520Z,10.40
2023-02-27T04:46:11.693Z,9.80
2023-02-27T04:49:18.685Z,8.50
2023-02-27T04:52:39.084Z,7.40
2023-02-27T04:55:48.289Z,6.70
2023-02-27T04:58:53.627Z,6.40
2023-02-27T05:02:09.209Z,5.80
2023-02-27T05:05:14.836Z,6.30
2023-02-27T05:08:34.621Z,6.80
2023-02-27T05:12:06.192Z,7.10
2023-02-27T05:15:18.303Z,8.60
2023-02-27T05:18:21.920Z,7.30
2023-02-27T05:21:28.330Z,10.20
2023-02-27T05:24:50.655Z,11.00
2023-02-27T05:28:23.411Z,11.30
2023-02-27T05:31:35.503Z,7.50
2023-02-27T05:34:44.960Z,6.70
2023-02-27T05:37:59.298Z,7.20
2023-02-27T05:41:05.122Z,7.60
2023-02-27T05:44:11.574Z,8.00
2023-02-27T05:47:19.040Z,8.20
2023-02-27T05:50:23.971Z,8.30
2023-02-27T05:53:30.481Z,7.60
2023-02-27T05:56:33.662Z,6.90
2023-02-27T06:00:07.985Z,7.30
2023-02-27T06:03:10.025Z,8.20
2023-02-27T06:06:15.427Z,7.40
2023-02-27T06:09:16.936Z,7.50
2023-02-27T06:12:18.665Z,6.90
2023-02-27T06:15:20.177Z,6.70
2023-02-27T06:18:21.730Z,6.20
2023-02-27T06:21:23.297Z,7.10
2023-02-27T06:24:24.878Z,6.90
2023-02-27T06:27:26.454Z,7.10
2023-02-27T06:33:29.982Z,6.70
2023-02-27T06:36:31.589Z,7.00
2023-02-27T06:39:33.142Z,6.90
2023-02-27T06:42:34.780Z,7.30
2023-02-27T06:45:36.550Z,6.90
2023-02-27T06:48:38.293Z,7.30
2023-02-27T06:54:41.391Z,6.80
2023-02-27T06:57:42.928Z,7.40
2023-02-27T07:00:44.627Z,7.00
2023-02-27T07:03:46.239Z,6.50
2023-02-27T07:07:35.268Z,7.70
2023-02-27T07:10:13.920Z,7.20
2023-02-27T07:13:19.405Z,7.70
2023-02-27T07:16:21.248Z,7.90
2023-02-27T07:19:24.048Z,7.80
2023-02-27T07:22:25.864Z,7.60
2023-02-27T07:28:29.298Z,7.40
2023-02-27T07:31:31.383Z,7.50
2023-02-27T07:34:33.024Z,6.20
2023-02-27T07:37:35.048Z,6.20
2023-02-27T07:40:36.590Z,6.10
2023-02-27T07:43:38.215Z,6.20
2023-02-27T07:46:39.814Z,7.00
2023-02-27T07:49:41.349Z,6.00
2023-02-27T07:52:44.376Z,4.90
2023-02-27T07:55:46.249Z,5.60
2023-02-27T07:58:48.158Z,5.70
2023-02-27T08:01:49.807Z,5.80
2023-02-27T08:07:53.192Z,4.50
2023-02-27T08:10:55.059Z,4.80
2023-02-27T08:17:02.933Z,5.60
2023-02-27T08:20:05.621Z,4.40
2023-02-27T08:23:07.328Z,3.90
2023-02-27T08:29:10.878Z,4.30
2023-02-27T08:32:12.748Z,4.70
2023-02-27T08:38:15.972Z,4.40
2023-02-27T08:41:17.739Z,5.20
2023-02-27T08:44:20.424Z,4.60
2023-02-27T08:47:22.301Z,3.90
2023-02-27T08:50:24.038Z,3.80
2023-02-27T08:53:26.103Z,4.20
2023-02-27T08:56:29.016Z,4.70
2023-02-27T08:59:31.904Z,4.00
2023-02-27T09:02:33.712Z,4.10
2023-02-27T09:05:35.510Z,3.80
2023-02-27T09:08:37.155Z,3.80
2023-02-27T09:17:42.583Z,4.00
2023-02-27T09:20:44.563Z,4.50
2023-02-27T09:23:46.192Z,4.10
2023-02-27T09:29:50.496Z,5.00
2023-02-27T09:35:53.651Z,5.40
2023-02-27T09:42:03.591Z,6.20
2023-02-27T09:45:07.370Z,5.20
2023-02-27T09:48:26.922Z,5.00
2023-02-27T09:51:29.121Z,5.40
2023-02-27T09:54:33.296Z,6.10
2023-02-27T09:57:41.897Z,6.20
2023-02-27T10:00:53.499Z,5.90
2023-02-27T10:04:03.371Z,5.50
2023-02-27T10:07:30.556Z,6.00
2023-02-27T10:10:37.634Z,7.10
2023-02-27T10:13:57.692Z,7.80
2023-02-27T10:17:03.391Z,8.00
2023-02-27T10:20:09.365Z,6.10
2023-02-27T10:23:18.447Z,6.70
2023-02-27T10:26:28.591Z,6.20
2023-02-27T10:29:35.937Z,6.00
2023-02-27T10:32:38.536Z,6.10
2023-02-27T10:35:41.329Z,6.70
2023-02-27T10:38:55.809Z,6.40
2023-02-27T10:42:05.918Z,5.50
2023-02-27T10:45:12.790Z,4.90
2023-02-27T10:48:14.671Z,4.10
2023-02-27T10:51:29.486Z,3.90
2023-02-27T10:54:31.640Z,4.40
2023-02-27T10:57:43.176Z,4.50
2023-02-27T11:00:59.584Z,4.40
2023-02-27T11:04:01.261Z,5.20
2023-02-27T11:07:09.285Z,4.40
2023-02-27T11:10:10.892Z,5.00
2023-02-27T11:16:20.860Z,4.90
2023-02-27T11:19:31.807Z,5.30
2023-02-27T11:22:33.644Z,4.40
2023-02-27T11:25:35.335Z,4.80
2023-02-27T11:28:37.087Z,4.70
2023-02-27T11:34:47.507Z,5.30
2023-02-27T11:37:50.556Z,5.30
2023-02-27T11:40:56.492Z,5.40
2023-02-27T11:43:59.036Z,5.70
2023-02-27T11:47:21.523Z,6.60
2023-02-27T11:50:41.414Z,7.40
2023-02-27T11:54:02.989Z,7.10
2023-02-27T11:57:25.383Z,6.80
2023-02-27T12:00:35.316Z,6.20
2023-02-27T12:03:48.924Z,6.60
2023-02-27T12:06:55.741Z,6.10
2023-02-27T12:10:06.837Z,5.70
2023-02-27T12:13:15.557Z,5.90
2023-02-27T12:16:36.580Z,5.40
2023-02-27T12:19:42.377Z,6.00
2023-02-27T12:22:46.281Z,18.60
2023-02-27T12:25:54.486Z,6.80
2023-02-27T12:29:09.518Z,7.10
2023-02-27T12:32:31.999Z,6.30
2023-02-27T12:35:33.612Z,6.20
2023-02-27T12:38:38.114Z,6.00
2023-02-27T12:41:51.766Z,5.20
2023-02-27T12:45:21.665Z,4.90
2023-02-27T12:48:47.604Z,4.90
2023-02-27T12:52:14.487Z,4.10
2023-02-27T12:55:23.890Z,5.20
2023-02-27T12:58:36.092Z,4.40
2023-02-27T13:01:48.230Z,4.70
2023-02-27T13:05:17.644Z,5.20
2023-02-27T13:08:42.799Z,5.10
2023-02-27T13:11:50.358Z,5.70
2023-02-27T13:15:00.115Z,4.50
2023-02-27T13:18:06.773Z,5.30
2023-02-27T13:21:15.266Z,5.10
2023-02-27T13:24:31.838Z,5.30
2023-02-27T13:27:42.332Z,5.60
2023-02-27T13:30:52.562Z,5.40
2023-02-27T13:34:03.492Z,5.30
2023-02-27T13:37:07.067Z,6.70
2023-02-27T13:40:28.484Z,8.10
2023-02-27T13:43:50.067Z,7.30
2023-02-27T13:46:53.464Z,7.30
2023-02-27T13:56:18.952Z,7.00
2023-02-27T13:59:28.356Z,7.50
2023-02-27T14:02:56.482Z,6.90
2023-02-27T14:06:03.111Z,8.00
2023-02-27T14:09:15.070Z,8.20
2023-02-27T14:12:46.993Z,8.80
2023-02-27T14:15:52.474Z,8.40
2023-02-27T14:18:57.905Z,8.10
2023-02-27T14:22:00.837Z,8.70
2023-02-27T14:25:19.179Z,8.00
2023-02-27T14:28:30.924Z,7.80
2023-02-27T14:31:35.258Z,8.40
2023-02-27T14:34:38.308Z,8.80
2023-02-27T14:37:40.813Z,11.30
2023-02-27T14:41:00.909Z,10.50
2023-02-27T14:44:03.047Z,11.50
2023-02-27T14:47:05.813Z,8.70
2023-02-27T14:50:22.320Z,9.00
2023-02-27T14:53:26.845Z,8.80
2023-02-27T14:56:28.744Z,8.40
2023-02-27T14:59:33.349Z,11.30
2023-02-27T15:02:35.897Z,13.30
2023-02-27T15:05:38.318Z,9.30
2023-02-27T15:08:41.807Z,11.20
2023-02-27T15:11:51.312Z,10.50
2023-02-27T15:15:01.040Z,10.50
2023-02-27T15:18:02.692Z,9.90
2023-02-27T15:21:04.360Z,10.70
2023-02-27T15:24:07.423Z,11.00
2023-02-27T15:27:12.349Z,10.70
2023-02-27T15:30:21.098Z,10.60
2023-02-27T15:33:31.329Z,12.00
2023-02-27T15:36:34.928Z,12.30
2023-02-27T15:39:36.821Z,9.70
2023-02-27T15:42:38.615Z,9.60
2023-02-27T15:48:41.802Z,9.50
2023-02-27T15:51:44.143Z,8.30
2023-02-27T15:54:54.469Z,10.90
2023-02-27T15:58:02.702Z,12.60
2023-02-27T16:01:09.066Z,12.80
2023-02-27T16:04:24.489Z,14.60
2023-02-27T16:07:26.602Z,13.30
2023-02-27T16:10:30.879Z,12.90
2023-02-27T16:13:37.410Z,13.00
2023-02-27T16:16:39.322Z,13.30
2023-02-27T16:19:41.020Z,13.40
2023-02-27T16:23:04.460Z,12.90
2023-02-27T16:26:08.881Z,13.70
2023-02-27T16:29:19.851Z,14.40
2023-02-27T16:32:30.414Z,12.10
2023-02-27T16:35:32.317Z,11.60
2023-02-27T16:41:35.493Z,17.80
2023-02-27T16:44:37.160Z,16.50
2023-02-27T16:47:38.967Z,13.90
2023-02-27T16:50:42.488Z,14.20
2023-02-27T16:53:46.744Z,15.80
2023-02-27T16:56:49.863Z,16.00
2023-02-27T16:59:51.515Z,16.90
2023-02-27T17:02:53.439Z,14.80
2023-02-27T17:05:54.993Z,13.30
2023-02-27T17:08:56.746Z,13.50
2023-02-27T17:11:58.335Z,12.90
2023-02-27T17:14:59.865Z,12.40
2023-02-27T17:18:01.819Z,12.20
2023-02-27T17:21:04.339Z,12.10
2023-02-27T17:24:06.432Z,14.00
2023-02-27T17:27:08.537Z,13.10
2023-02-27T17:30:10.843Z,14.90
2023-02-27T17:33:12.555Z,14.20
2023-02-27T17:39:16.166Z,16.20
2023-02-27T17:42:18.215Z,15.30
2023-02-27T17:48:21.533Z,15.30
2023-02-27T17:51:23.357Z,15.20
2023-02-27T17:57:27.708Z,14.80
2023-02-27T18:00:29.193Z,15.20
2023-02-27T18:03:31.062Z,13.70
2023-02-27T18:09:34.688Z,13.40
2023-02-27T18:12:37.057Z,14.10
2023-02-27T18:15:39.955Z,14.70
2023-02-27T18:18:42.978Z,16.20
2023-02-27T18:21:46.323Z,14.10
2023-02-27T18:24:48.939Z,14.20
2023-02-27T18:27:50.776Z,14.20
2023-02-27T18:36:58.174Z,14.20
2023-02-27T18:40:00.118Z,14.20
2023-02-27T18:46:03.917Z,14.30
2023-02-27T18:52:07.113Z,15.10
2023-02-27T18:55:09.342Z,15.60
2023-02-27T18:58:10.954Z,15.20
2023-02-27T19:01:27.513Z,14.40
2023-02-27T19:04:32.633Z,14.80
2023-02-27T19:07:34.442Z,13.00
2023-02-27T19:13:41.148Z,17.30
2023-02-27T19:19:44.734Z,15.10
2023-02-27T19:22:46.834Z,13.40
2023-02-27T19:25:48.448Z,17.10
2023-02-27T19:28:54.201Z,15.60
2023-02-27T19:31:55.894Z,17.40
2023-02-27T19:34:57.549Z,17.80
2023-02-27T19:37:59.190Z,17.30
2023-02-27T19:41:02.714Z,14.00
2023-02-27T19:44:04.707Z,14.40
2023-02-27T19:47:06.925Z,14.00
2023-02-27T19:50:09.528Z,14.70
2023-02-27T19:53:11.368Z,15.50
2023-02-27T19:59:15.744Z,14.60
2023-02-27T20:05:19.114Z,14.40
2023-02-27T20:08:21.243Z,14.90
2023-02-27T20:11:23.063Z,17.80
2023-02-27T20:14:24.823Z,27.50
2023-02-27T20:17:26.510Z,29.40
2023-02-27T20:20:28.125Z,29.00
2023-02-27T20:23:31.645Z,23.40
2023-02-27T20:26:36.656Z,22.20
2023-02-27T20:29:38.224Z,20.10
2023-02-27T20:32:40.097Z,19.20
2023-02-27T20:38:44.271Z,13.80
2023-02-27T20:41:46.082Z,13.80
2023-02-27T20:44:48.813Z,15.80
2023-02-27T20:47:50.550Z,14.10
2023-02-27T20:50:52.216Z,14.60
2023-02-27T20:53:55.616Z,15.30
2023-02-27T20:57:00.290Z,17.80
2023-02-27T21:03:03.957Z,16.30
2023-02-27T21:06:07.198Z,16.50
2023-02-27T21:09:08.766Z,15.50
2023-02-27T21:12:11.346Z,15.50
2023-02-27T21:15:12.872Z,16.40
2023-02-27T21:18:14.465Z,13.40
2023-02-27T21:21:19.722Z,14.40
2023-02-27T21:24:21.275Z,16.40
2023-02-27T21:27:25.104Z,14.30
2023-02-27T21:30:26.699Z,14.20
2023-02-27T21:33:28.322Z,13.30
2023-02-27T21:36:35.244Z,12.40
2023-02-27T21:39:36.822Z,12.20
2023-02-27T21:42:38.396Z,13.70
2023-02-27T21:45:40.155Z,13.10
2023-02-27T21:48:44.813Z,14.20
2023-02-27T21:51:47.303Z,14.40
2023-02-27T21:54:49.189Z,12.90
2023-02-27T21:57:50.995Z,12.30
2023-02-27T22:03:54.464Z,13.10
2023-02-27T22:06:56.040Z,13.10
2023-02-27T22:09:57.812Z,15.10
2023-02-27T22:12:59.787Z,15.50
2023-02-27T22:16:06.510Z,14.80
2023-02-27T22:19:10.445Z,13.60
2023-02-27T22:22:12.125Z,14.20
2023-02-27T22:25:13.779Z,14.40
2023-02-27T22:28:15.588Z,12.80
2023-02-27T22:34:22.901Z,14.00
2023-02-27T22:40:26.104Z,16.40
2023-02-27T22:43:27.690Z,16.20
2023-02-27T22:46:36.852Z,18.00
2023-02-27T22:49:38.505Z,18.40
2023-02-27T22:52:40.300Z,20.50
2023-02-27T22:58:44.739Z,19.40
2023-02-27T23:01:46.482Z,17.90
2023-02-27T23:07:49.496Z,20.70
2023-02-27T23:10:51.095Z,22.00
2023-02-27T23:13:53.131Z,20.00
2023-02-27T23:16:54.680Z,15.30
2023-02-27T23:19:56.792Z,15.00
2023-02-27T23:22:58.438Z,14.90
2023-02-27T23:29:05.793Z,14.40
2023-02-27T23:32:07.629Z,14.00
2023-02-27T23:35:10.920Z,14.60
2023-02-27T23:38:12.464Z,14.50
2023-02-27T23:41:15.113Z,16.50
2023-02-27T23:44:16.646Z,16.10
2023-02-27T23:47:18.416Z,16.20
2023-02-27T23:50:23.035Z,16.20
2023-02-27T23:53:24.614Z,14.50
2023-02-27T23:56:29.702Z,15.40
2023-02-27T23:59:31.506Z,14.40
